createdAt,value
2022-12-13T00:01:29.663Z,-3.62
2022-12-13T00:03:58.454Z,-3.81
2022-12-13T00:06:25.940Z,-3.90
2022-12-13T00:08:53.380Z,-3.92
2022-12-13T00:11:22.084Z,-4.01
2022-12-13T00:13:49.094Z,-4.12
2022-12-13T00:16:20.351Z,-4.19
2022-12-13T00:18:47.779Z,-4.26
2022-12-13T00:21:19.599Z,-4.36
2022-12-13T00:23:47.024Z,-4.43
2022-12-13T00:26:20.842Z,-4.48
2022-12-13T00:28:51.279Z,-4.46
2022-12-13T00:31:53.354Z,-4.50
2022-12-13T00:34:08.452Z,-4.58
2022-12-13T00:36:34.950Z,-4.66
2022-12-13T00:39:01.626Z,-4.72
2022-12-13T00:41:34.312Z,-4.77
2022-12-13T00:44:04.191Z,-4.56
2022-12-13T00:46:31.245Z,-4.78
2022-12-13T00:49:00.234Z,-4.83
2022-12-13T00:51:30.979Z,-4.85
2022-12-13T00:53:57.624Z,-4.81
2022-12-13T00:56:27.388Z,-4.85
2022-12-13T00:58:54.380Z,-4.79
2022-12-13T01:01:26.504Z,-4.75
2022-12-13T01:03:58.294Z,-4.78
2022-12-13T01:06:31.455Z,-4.71
2022-12-13T01:09:03.854Z,-4.82
2022-12-13T01:11:30.346Z,-4.87
2022-12-13T01:13:56.781Z,-4.70
2022-12-13T01:16:23.296Z,-4.36
2022-12-13T01:18:50.507Z,-4.54
2022-12-13T01:21:19.264Z,-4.60
2022-12-13T01:23:45.857Z,-4.38
2022-12-13T01:26:16.027Z,-4.15
2022-12-13T01:28:42.867Z,-3.71
2022-12-13T01:31:13.306Z,-3.62
2022-12-13T01:33:42.459Z,-3.52
2022-12-13T01:36:13.052Z,-3.28
2022-12-13T01:38:39.627Z,-3.27
2022-12-13T01:41:16.697Z,-3.25
2022-12-13T01:43:44.367Z,-3.23
2022-12-13T01:46:13.648Z,-3.06
2022-12-13T01:49:02.361Z,-3.05
2022-12-13T01:51:39.381Z,-3.15
2022-12-13T01:54:11.321Z,-3.01
2022-12-13T01:56:42.316Z,-3.02
2022-12-13T01:59:11.350Z,-3.03
2022-12-13T02:01:38.993Z,-2.95
2022-12-13T02:04:06.116Z,-2.89
2022-12-13T02:06:36.113Z,-2.84
2022-12-13T02:09:05.780Z,-2.89
2022-12-13T02:11:33.977Z,-2.92
2022-12-13T02:14:00.560Z,-2.91
2022-12-13T02:16:57.578Z,-2.82
2022-12-13T02:19:36.140Z,-2.87
2022-12-13T02:22:11.644Z,-2.86
2022-12-13T02:24:40.929Z,-2.82
2022-12-13T02:27:12.063Z,-2.72
2022-12-13T02:29:57.958Z,-2.82
2022-12-13T02:32:52.018Z,-2.83
2022-12-13T02:35:23.945Z,-2.85
2022-12-13T02:37:56.280Z,-2.80
2022-12-13T02:40:31.387Z,-2.74
2022-12-13T02:43:21.388Z,-2.88
2022-12-13T02:46:01.235Z,-2.92
2022-12-13T02:48:32.418Z,-2.88
2022-12-13T02:51:00.696Z,-2.89
2022-12-13T02:53:27.589Z,-2.95
2022-12-13T02:55:54.080Z,-3.12
2022-12-13T02:58:29.563Z,-3.19
2022-12-13T03:01:40.370Z,-3.18
2022-12-13T03:04:26.288Z,-3.10
2022-12-13T03:07:08.865Z,-3.23
2022-12-13T03:10:13.910Z,-3.10
2022-12-13T03:13:09.948Z,-3.30
2022-12-13T03:15:41.850Z,-3.29
2022-12-13T03:18:15.329Z,-3.35
2022-12-13T03:20:53.454Z,-3.51
2022-12-13T03:23:21.057Z,-3.62
2022-12-13T03:25:50.934Z,-3.79
2022-12-13T03:28:20.252Z,-3.86
2022-12-13T03:30:46.658Z,-4.00
2022-12-13T03:33:13.200Z,-4.12
2022-12-13T03:35:44.846Z,-4.18
2022-12-13T03:38:22.040Z,-4.30
2022-12-13T03:40:55.849Z,-4.42
2022-12-13T03:43:23.198Z,-4.45
2022-12-13T03:45:51.259Z,-4.59
2022-12-13T03:48:23.036Z,-4.48
2022-12-13T03:50:54.090Z,-4.45
2022-12-13T03:53:33.641Z,-4.62
2022-12-13T03:56:03.109Z,-4.73
2022-12-13T03:58:36.134Z,-4.61
2022-12-13T04:01:09.802Z,-4.74
2022-12-13T04:03:37.924Z,-4.84
2022-12-13T04:06:05.194Z,-4.88
2022-12-13T04:08:31.711Z,-4.74
2022-12-13T04:10:58.208Z,-4.88
2022-12-13T04:13:33.224Z,-4.94
2022-12-13T04:16:01.171Z,-4.88
2022-12-13T04:18:30.614Z,-4.64
2022-12-13T04:20:57.650Z,-4.46
2022-12-13T04:23:26.761Z,-4.67
2022-12-13T04:25:53.242Z,-4.32
2022-12-13T04:28:22.550Z,-4.13
2022-12-13T04:30:53.989Z,-4.38
2022-12-13T04:33:24.437Z,-4.25
2022-12-13T04:35:51.690Z,-4.06
2022-12-13T04:38:18.589Z,-3.77
2022-12-13T04:40:45.092Z,-3.97
2022-12-13T04:43:11.569Z,-3.75
2022-12-13T04:45:42.786Z,-3.74
2022-12-13T04:48:09.355Z,-3.64
2022-12-13T04:50:38.226Z,-3.66
2022-12-13T04:53:04.663Z,-3.67
2022-12-13T04:55:31.384Z,-3.68
2022-12-13T04:57:57.887Z,-3.80
2022-12-13T05:00:24.384Z,-3.76
2022-12-13T05:02:53.149Z,-3.85
2022-12-13T05:05:19.677Z,-3.98
2022-12-13T05:07:48.564Z,-4.11
2022-12-13T05:10:15.658Z,-3.96
2022-12-13T05:13:02.106Z,-3.95
2022-12-13T05:15:30.874Z,-3.95
2022-12-13T05:18:11.001Z,-4.07
2022-12-13T05:20:39.412Z,-4.06
2022-12-13T05:23:05.959Z,-4.14
2022-12-13T05:25:37.083Z,-4.04
2022-12-13T05:28:08.990Z,-4.11
2022-12-13T05:30:51.635Z,-4.08
2022-12-13T05:33:20.604Z,-3.95
2022-12-13T05:35:47.237Z,-4.01
2022-12-13T05:38:16.277Z,-4.05
2022-12-13T05:40:45.223Z,-4.11
2022-12-13T05:43:22.001Z,-4.21
2022-12-13T05:45:49.082Z,-4.21
2022-12-13T05:48:15.796Z,-4.21
2022-12-13T05:50:51.203Z,-4.33
2022-12-13T05:53:30.492Z,-4.40
2022-12-13T05:56:08.815Z,-4.53
2022-12-13T05:58:37.016Z,-4.62
2022-12-13T06:01:11.609Z,-4.65
2022-12-13T06:03:38.503Z,-4.43
2022-12-13T06:06:08.858Z,-4.45
2022-12-13T06:08:38.154Z,-4.55
2022-12-13T06:11:10.801Z,-4.68
2022-12-13T06:13:43.849Z,-4.72
2022-12-13T06:16:21.679Z,-4.67
2022-12-13T06:18:54.459Z,-4.80
2022-12-13T06:21:25.727Z,-4.72
2022-12-13T06:23:52.253Z,-4.77
2022-12-13T06:26:21.255Z,-4.92
2022-12-13T06:28:47.604Z,-4.99
2022-12-13T06:31:14.078Z,-5.06
2022-12-13T06:33:40.487Z,-4.77
2022-12-13T06:36:07.636Z,-4.97
2022-12-13T06:38:34.049Z,-4.96
2022-12-13T06:41:12.292Z,-5.13
2022-12-13T06:43:42.002Z,-5.19
2022-12-13T06:46:08.531Z,-5.21
2022-12-13T06:48:35.882Z,-5.31
2022-12-13T06:51:04.987Z,-5.32
2022-12-13T06:53:32.153Z,-5.17
2022-12-13T06:56:03.899Z,-5.36
2022-12-13T06:58:30.452Z,-5.39
2022-12-13T07:01:24.732Z,-5.46
2022-12-13T07:03:54.056Z,-5.51
2022-12-13T07:06:24.454Z,-5.47
2022-12-13T07:08:53.779Z,-5.43
2022-12-13T07:11:25.276Z,-5.40
2022-12-13T07:13:57.232Z,-5.42
2022-12-13T07:16:24.583Z,-5.34
2022-12-13T07:19:01.219Z,-5.37
2022-12-13T07:21:29.363Z,-5.49
2022-12-13T07:23:58.385Z,-5.44
2022-12-13T07:26:25.295Z,-5.55
2022-12-13T07:28:55.301Z,-5.53
2022-12-13T07:31:24.180Z,-5.54
2022-12-13T07:33:53.688Z,-5.38
2022-12-13T07:36:22.051Z,-5.30
2022-12-13T07:38:57.294Z,-5.14
2022-12-13T07:41:25.210Z,-5.19
2022-12-13T07:43:54.784Z,-5.21
2022-12-13T07:46:25.967Z,-5.22
2022-12-13T07:49:01.844Z,-5.20
2022-12-13T07:51:28.661Z,-5.22
2022-12-13T07:53:55.084Z,-5.22
2022-12-13T07:56:21.468Z,-5.18
2022-12-13T07:58:47.980Z,-5.03
2022-12-13T08:01:14.542Z,-5.00
2022-12-13T08:03:40.893Z,-5.08
2022-12-13T08:06:12.385Z,-5.04
2022-12-13T08:08:41.767Z,-5.02
2022-12-13T08:11:16.715Z,-4.94
2022-12-13T08:13:43.292Z,-4.65
2022-12-13T08:16:27.506Z,-4.39
2022-12-13T08:19:01.574Z,-4.40
2022-12-13T08:24:20.295Z,-4.31
2022-12-13T08:26:46.798Z,-4.22
2022-12-13T08:29:13.394Z,-4.00
2022-12-13T08:31:52.580Z,-4.06
2022-12-13T08:34:19.086Z,-4.05
2022-12-13T08:36:45.462Z,-3.95
2022-12-13T08:39:11.847Z,-3.82
2022-12-13T08:41:39.437Z,-3.82
2022-12-13T08:44:06.389Z,-3.85
2022-12-13T08:46:33.002Z,-3.73
2022-12-13T08:48:59.592Z,-3.69
2022-12-13T08:51:35.255Z,-3.57
2022-12-13T08:54:10.340Z,-3.57
2022-12-13T08:56:38.718Z,-3.42
2022-12-13T08:59:10.155Z,-3.40
2022-12-13T09:01:38.883Z,-3.19
2022-12-13T09:04:07.594Z,-3.29
2022-12-13T09:06:37.187Z,-3.09
2022-12-13T09:09:03.856Z,-3.12
2022-12-13T09:11:33.195Z,-3.22
2022-12-13T09:14:04.894Z,-3.20
2022-12-13T09:16:36.007Z,-3.10
2022-12-13T09:19:06.651Z,-3.12
2022-12-13T09:21:53.575Z,-3.17
2022-12-13T09:24:29.370Z,-3.13
2022-12-13T09:27:03.486Z,-2.95
2022-12-13T09:29:36.321Z,-2.89
2022-12-13T09:32:02.833Z,-2.86
2022-12-13T09:34:29.545Z,-2.94
2022-12-13T09:37:01.671Z,-2.97
2022-12-13T09:39:29.147Z,-2.92
2022-12-13T09:42:00.968Z,-2.97
2022-12-13T09:44:32.042Z,-2.94
2022-12-13T09:47:03.544Z,-2.95
2022-12-13T09:49:35.876Z,-2.95
2022-12-13T09:52:11.155Z,-2.95
2022-12-13T09:54:47.683Z,-2.88
2022-12-13T09:57:31.435Z,-2.90
2022-12-13T10:00:02.804Z,-2.78
2022-12-13T10:02:37.668Z,-2.74
2022-12-13T10:05:22.913Z,-2.73
2022-12-13T10:07:52.506Z,-2.72
2022-12-13T10:10:20.481Z,-2.74
2022-12-13T10:12:54.729Z,-2.72
2022-12-13T10:15:22.911Z,-2.74
2022-12-13T10:17:55.241Z,-2.54
2022-12-13T10:20:28.773Z,-2.60
2022-12-13T10:23:30.572Z,-2.56
2022-12-13T10:25:50.874Z,-2.65
2022-12-13T10:28:24.159Z,-2.63
2022-12-13T10:30:50.652Z,-2.47
2022-12-13T10:33:30.702Z,-2.40
2022-12-13T10:36:29.981Z,-2.32
2022-12-13T10:38:56.588Z,-2.21
2022-12-13T10:41:33.397Z,-2.17
2022-12-13T10:44:07.352Z,-2.12
2022-12-13T10:46:38.244Z,-2.12
2022-12-13T10:49:16.865Z,-2.05
2022-12-13T10:51:43.908Z,-2.03
2022-12-13T10:54:48.302Z,-1.97
2022-12-13T10:57:16.497Z,-1.92
2022-12-13T10:59:45.429Z,-1.89
2022-12-13T11:02:37.871Z,-1.92
2022-12-13T11:05:27.019Z,-1.89
2022-12-13T11:08:00.889Z,-1.82
2022-12-13T11:10:29.490Z,-1.80
2022-12-13T11:13:05.655Z,-1.75
2022-12-13T11:15:39.883Z,-1.83
2022-12-13T11:18:18.261Z,-1.76
2022-12-13T11:21:00.655Z,-1.81
2022-12-13T11:23:34.301Z,-1.83
2022-12-13T11:26:08.291Z,-1.69
2022-12-13T11:28:51.707Z,-1.75
2022-12-13T11:31:39.231Z,-1.80
2022-12-13T11:34:17.907Z,-1.68
2022-12-13T11:36:58.446Z,-1.72
2022-12-13T11:39:29.402Z,-1.66
2022-12-13T11:42:24.921Z,-1.66
2022-12-13T11:45:31.808Z,-1.59
2022-12-13T11:48:50.915Z,-1.57
2022-12-13T11:51:25.252Z,-1.56
2022-12-13T11:53:58.501Z,-1.63
2022-12-13T11:56:30.880Z,-1.62
2022-12-13T11:59:26.897Z,-1.67
2022-12-13T12:02:07.349Z,-1.60
2022-12-13T12:05:00.732Z,-1.46
2022-12-13T12:08:05.128Z,-1.52
2022-12-13T12:10:47.398Z,-1.48
2022-12-13T12:13:21.925Z,-1.52
2022-12-13T12:16:11.074Z,-1.45
2022-12-13T12:18:37.597Z,-1.39
2022-12-13T12:22:12.700Z,-1.40
2022-12-13T12:24:47.005Z,-1.35
2022-12-13T12:27:32.114Z,-1.37
2022-12-13T12:30:10.098Z,-1.34
2022-12-13T12:33:06.405Z,-1.31
2022-12-13T12:35:56.024Z,-1.35
2022-12-13T12:38:38.476Z,-1.30
2022-12-13T12:41:45.621Z,-1.32
2022-12-13T12:44:34.635Z,-1.30
2022-12-13T12:48:08.914Z,-1.28
2022-12-13T12:50:45.206Z,-1.33
2022-12-13T12:53:17.647Z,-1.31
2022-12-13T12:55:51.558Z,-1.30
2022-12-13T12:58:35.885Z,-1.26
2022-12-13T13:01:21.677Z,-1.31
2022-12-13T13:03:51.199Z,-1.27
2022-12-13T13:06:28.315Z,-1.25
2022-12-13T13:09:00.811Z,-1.24
2022-12-13T13:11:31.316Z,-1.21
2022-12-13T13:14:01.689Z,-1.22
2022-12-13T13:16:37.696Z,-1.23
2022-12-13T13:19:33.218Z,-1.23
2022-12-13T13:22:01.366Z,-1.23
2022-12-13T13:24:30.520Z,-1.25
2022-12-13T13:27:29.603Z,-1.26
2022-12-13T13:30:06.806Z,-1.23
2022-12-13T13:32:37.350Z,-1.23
2022-12-13T13:35:32.500Z,-1.26
2022-12-13T13:38:03.498Z,-1.25
2022-12-13T13:40:37.717Z,-1.27
2022-12-13T13:43:14.274Z,-1.27
2022-12-13T13:45:51.363Z,-1.28
2022-12-13T13:48:56.883Z,-1.33
2022-12-13T13:52:23.875Z,-1.34
2022-12-13T13:55:05.007Z,-1.33
2022-12-13T13:58:21.653Z,-1.35
2022-12-13T14:00:57.585Z,-1.37
2022-12-13T14:03:44.578Z,-1.40
2022-12-13T14:06:29.065Z,-1.37
2022-12-13T14:09:29.764Z,-1.44
2022-12-13T14:12:20.566Z,-1.53
2022-12-13T14:15:01.713Z,-1.55
2022-12-13T14:18:21.479Z,-1.61
2022-12-13T14:21:03.099Z,-1.67
2022-12-13T14:24:02.088Z,-1.72
2022-12-13T14:26:55.572Z,-1.78
2022-12-13T14:29:41.560Z,-1.75
2022-12-13T14:32:28.355Z,-1.74
2022-12-13T14:34:59.953Z,-1.74
2022-12-13T14:38:02.689Z,-1.74
2022-12-13T14:40:37.832Z,-1.81
2022-12-13T14:43:04.447Z,-1.62
2022-12-13T14:45:34.424Z,-1.61
2022-12-13T14:48:05.814Z,-1.62
2022-12-13T14:50:35.324Z,-1.63
2022-12-13T14:53:05.081Z,-1.66
2022-12-13T14:55:36.620Z,-1.65
2022-12-13T14:58:17.394Z,-1.61
2022-12-13T15:00:45.994Z,-1.67
2022-12-13T15:03:22.356Z,-1.58
2022-12-13T15:05:54.509Z,-1.62
2022-12-13T15:08:21.597Z,-1.59
2022-12-13T15:10:51.692Z,-1.58
2022-12-13T15:13:40.044Z,-1.63
2022-12-13T15:16:16.622Z,-1.61
2022-12-13T15:18:43.070Z,-1.67
2022-12-13T15:21:25.265Z,-1.66
2022-12-13T15:23:58.184Z,-1.61
2022-12-13T15:26:28.918Z,-1.65
2022-12-13T15:29:00.752Z,-1.69
2022-12-13T15:31:28.406Z,-1.69
2022-12-13T15:34:01.146Z,-1.72
2022-12-13T15:36:32.024Z,-1.75
2022-12-13T15:39:00.727Z,-1.74
2022-12-13T15:41:34.023Z,-1.77
2022-12-13T15:44:07.862Z,-1.71
2022-12-13T15:46:40.408Z,-1.72
2022-12-13T15:49:22.479Z,-1.76
2022-12-13T15:52:14.287Z,-1.71
2022-12-13T15:54:40.815Z,-1.80
2022-12-13T15:57:24.294Z,-1.85
2022-12-13T16:00:05.537Z,-1.92
2022-12-13T16:02:34.994Z,-1.88
2022-12-13T16:05:10.028Z,-1.90
2022-12-13T16:07:39.779Z,-1.95
2022-12-13T16:10:08.118Z,-1.93
2022-12-13T16:12:47.929Z,-1.95
2022-12-13T16:15:29.338Z,-1.92
2022-12-13T16:18:12.703Z,-2.00
2022-12-13T16:20:39.508Z,-1.97
2022-12-13T16:23:09.042Z,-2.00
2022-12-13T16:25:36.068Z,-2.04
2022-12-13T16:28:02.626Z,-1.97
2022-12-13T16:30:51.832Z,-2.03
2022-12-13T16:33:26.588Z,-1.97
2022-12-13T16:35:56.920Z,-1.93
2022-12-13T16:38:26.848Z,-1.99
2022-12-13T16:41:00.819Z,-1.99
2022-12-13T16:43:39.650Z,-1.95
2022-12-13T16:47:11.591Z,-1.90
2022-12-13T16:48:54.216Z,-1.82
2022-12-13T16:51:21.516Z,-1.87
2022-12-13T16:53:48.511Z,-1.88
2022-12-13T16:56:21.665Z,-1.86
2022-12-13T16:58:50.304Z,-1.86
2022-12-13T17:01:20.498Z,-1.88
2022-12-13T17:03:49.405Z,-1.82
2022-12-13T17:06:20.187Z,-1.86
2022-12-13T17:08:49.704Z,-1.89
2022-12-13T17:11:18.249Z,-1.86
2022-12-13T17:13:47.030Z,-1.84
2022-12-13T17:16:18.374Z,-1.84
2022-12-13T17:18:44.860Z,-1.82
2022-12-13T17:21:14.438Z,-1.82
2022-12-13T17:23:40.899Z,-1.79
2022-12-13T17:26:08.662Z,-1.79
2022-12-13T17:28:35.575Z,-1.84
2022-12-13T17:31:11.966Z,-1.80
2022-12-13T17:33:39.374Z,-1.77
2022-12-13T17:36:07.787Z,-1.76
2022-12-13T17:38:34.733Z,-1.69
2022-12-13T17:41:01.332Z,-1.69
2022-12-13T17:43:34.791Z,-1.68
2022-12-13T17:46:06.631Z,-1.72
2022-12-13T17:48:39.563Z,-1.74
2022-12-13T17:51:08.456Z,-1.70
2022-12-13T17:53:36.044Z,-1.69
2022-12-13T17:56:06.315Z,-1.68
2022-12-13T17:58:32.855Z,-1.67
2022-12-13T18:01:08.705Z,-1.66
2022-12-13T18:03:35.138Z,-1.65
2022-12-13T18:06:01.708Z,-1.64
2022-12-13T18:08:30.465Z,-1.64
2022-12-13T18:11:31.235Z,-1.63
2022-12-13T18:13:48.262Z,-1.63
2022-12-13T18:16:21.847Z,-1.60
2022-12-13T18:18:54.720Z,-1.58
2022-12-13T18:21:23.218Z,-1.58
2022-12-13T18:23:55.140Z,-1.61
2022-12-13T18:26:22.110Z,-1.54
2022-12-13T18:28:48.501Z,-1.59
2022-12-13T18:31:20.540Z,-1.56
2022-12-13T18:33:48.196Z,-1.55
2022-12-13T18:36:16.422Z,-1.54
2022-12-13T18:38:43.207Z,-1.52
2022-12-13T18:41:13.839Z,-1.52
2022-12-13T18:43:41.876Z,-1.52
2022-12-13T18:46:10.082Z,-1.53
2022-12-13T18:48:36.572Z,-1.53
2022-12-13T18:51:08.351Z,-1.58
2022-12-13T18:53:35.356Z,-1.55
2022-12-13T18:56:04.656Z,-1.56
2022-12-13T18:58:35.809Z,-1.58
2022-12-13T19:01:03.253Z,-1.57
2022-12-13T19:03:33.375Z,-1.62
2022-12-13T19:06:01.225Z,-1.60
2022-12-13T19:08:30.650Z,-1.59
2022-12-13T19:11:03.260Z,-1.61
2022-12-13T19:13:31.109Z,-1.60
2022-12-13T19:16:03.547Z,-1.55
2022-12-13T19:18:29.926Z,-1.56
2022-12-13T19:20:56.333Z,-1.57
2022-12-13T19:23:23.367Z,-1.58
2022-12-13T19:25:50.120Z,-1.59
2022-12-13T19:28:17.521Z,-1.56
2022-12-13T19:30:46.266Z,-1.58
2022-12-13T19:33:13.843Z,-1.56
2022-12-13T19:35:42.970Z,-1.58
2022-12-13T19:38:10.033Z,-1.58
2022-12-13T19:40:40.054Z,-1.57
2022-12-13T19:43:06.890Z,-1.55
2022-12-13T19:45:33.813Z,-1.55
2022-12-13T19:48:00.224Z,-1.58
2022-12-13T19:50:26.752Z,-1.57
2022-12-13T19:52:53.258Z,-1.55
2022-12-13T19:55:19.755Z,-1.56
2022-12-13T19:57:46.127Z,-1.56
2022-12-13T20:00:13.700Z,-1.58
2022-12-13T20:02:42.628Z,-1.63
2022-12-13T20:05:10.214Z,-1.64
2022-12-13T20:07:36.931Z,-1.60
2022-12-13T20:10:08.836Z,-1.64
2022-12-13T20:12:40.452Z,-1.61
2022-12-13T20:15:08.154Z,-1.68
2022-12-13T20:17:36.074Z,-1.67
2022-12-13T20:20:03.930Z,-1.68
2022-12-13T20:22:31.995Z,-1.69
2022-12-13T20:24:58.683Z,-1.70
2022-12-13T20:27:28.100Z,-1.67
2022-12-13T20:29:57.027Z,-1.62
2022-12-13T20:32:28.625Z,-1.62
2022-12-13T20:34:55.749Z,-1.59
2022-12-13T20:37:24.994Z,-1.55
2022-12-13T20:39:51.518Z,-1.52
2022-12-13T20:42:18.224Z,-1.54
2022-12-13T20:44:45.017Z,-1.51
2022-12-13T20:47:11.686Z,-1.49
2022-12-13T20:49:38.089Z,-1.48
2022-12-13T20:52:05.256Z,-1.46
2022-12-13T20:54:31.733Z,-1.43
2022-12-13T20:56:58.100Z,-1.43
2022-12-13T20:59:24.512Z,-1.44
2022-12-13T21:01:51.015Z,-1.46
2022-12-13T21:04:18.193Z,-1.50
2022-12-13T21:06:47.315Z,-1.47
2022-12-13T21:09:13.682Z,-1.46
2022-12-13T21:11:46.813Z,-1.46
2022-12-13T21:14:21.986Z,-1.47
2022-12-13T21:17:00.377Z,-1.46
2022-12-13T21:19:33.121Z,-1.50
2022-12-13T21:22:02.725Z,-1.47
2022-12-13T21:24:32.135Z,-1.44
2022-12-13T21:26:59.854Z,-1.45
2022-12-13T21:29:26.458Z,-1.46
2022-12-13T21:31:56.041Z,-1.44
2022-12-13T21:34:23.303Z,-1.43
2022-12-13T21:36:52.378Z,-1.46
2022-12-13T21:39:24.844Z,-1.43
2022-12-13T21:41:52.254Z,-1.42
2022-12-13T21:44:19.271Z,-1.42
2022-12-13T21:47:11.506Z,-1.43
2022-12-13T21:49:33.241Z,-1.45
2022-12-13T21:52:01.957Z,-1.47
2022-12-13T21:54:28.403Z,-1.46
2022-12-13T21:57:13.785Z,-1.42
2022-12-13T21:59:40.236Z,-1.45
2022-12-13T22:02:18.385Z,-1.34
2022-12-13T22:04:48.309Z,-1.39
2022-12-13T22:07:22.287Z,-1.38
2022-12-13T22:09:49.855Z,-1.37
2022-12-13T22:12:41.772Z,-1.37
2022-12-13T22:15:12.746Z,-1.36
2022-12-13T22:17:39.913Z,-1.32
2022-12-13T22:20:12.638Z,-1.34
2022-12-13T22:22:43.949Z,-1.30
2022-12-13T22:25:10.420Z,-1.30
2022-12-13T22:27:36.953Z,-1.30
2022-12-13T22:30:04.059Z,-1.34
2022-12-13T22:32:32.131Z,-1.32
2022-12-13T22:34:59.050Z,-1.33
2022-12-13T22:37:25.897Z,-1.31
2022-12-13T22:39:52.558Z,-1.29
2022-12-13T22:42:22.095Z,-1.29
2022-12-13T22:44:48.508Z,-1.25
2022-12-13T22:47:15.067Z,-1.27
2022-12-13T22:49:41.694Z,-1.26
2022-12-13T22:52:10.734Z,-1.25
2022-12-13T22:54:37.188Z,-1.23
2022-12-13T22:57:06.171Z,-1.27
2022-12-13T22:59:32.954Z,-1.25
2022-12-13T23:02:02.523Z,-1.23
2022-12-13T23:04:31.831Z,-1.20
2022-12-13T23:07:00.717Z,-1.18
2022-12-13T23:09:27.179Z,-1.19
2022-12-13T23:12:12.076Z,-1.20
2022-12-13T23:14:38.407Z,-1.19
2022-12-13T23:17:05.104Z,-1.20
2022-12-13T23:19:41.454Z,-1.21
2022-12-13T23:22:17.794Z,-1.21
2022-12-13T23:24:46.779Z,-1.20
2022-12-13T23:27:13.149Z,-1.23
2022-12-13T23:29:39.626Z,-1.22
2022-12-13T23:32:06.202Z,-1.21
2022-12-13T23:34:32.767Z,-1.20
2022-12-13T23:37:01.700Z,-1.19
2022-12-13T23:39:30.427Z,-1.17
2022-12-13T23:41:56.917Z,-1.15
2022-12-13T23:44:23.475Z,-1.16
2022-12-13T23:46:50.180Z,-1.16
2022-12-13T23:49:16.670Z,-1.17
2022-12-13T23:51:46.050Z,-1.16
2022-12-13T23:54:16.466Z,-1.17
2022-12-13T23:56:43.443Z,-1.16
2022-12-13T23:59:10.229Z,-1.16
